Time;durP1;ratioP1;P1;durP2;ratioP2;P2;SDS_P1;SDS_P2;PMS_P1;PMS_P2;Temp;Humidity;BMP_temperature;BMP_pressure;BME280_temperature;BME280_humidity;BME280_pressure;Samples;Min_cycle;Max_cycle;Signal;HPM_P1;HPM_P2
2021/04/21 00:02:16;;;;;;;29.73;17.73;;;;;;;12.05;63.67;99947.50;5045560;27;96668;-76
2021/04/21 00:04:44;;;;;;;32.65;17.67;;;;;;;11.96;63.83;99937.41;5034558;27;96970;-71
2021/04/21 00:07:14;;;;;;;29.80;16.88;;;;;;;11.92;64.11;99935.81;5045495;27;102493;-72
2021/04/21 00:09:39;;;;;;;25.77;17.05;;;;;;;11.86;64.03;99938.72;5052257;27;98287;-71
2021/04/21 00:12:06;;;;;;;27.33;17.00;;;;;;;11.82;64.38;99934.50;5066979;27;97187;-72
2021/04/21 00:14:31;;;;;;;25.50;16.40;;;;;;;11.82;64.19;99934.50;5037649;27;97017;-72
2021/04/21 00:17:00;;;;;;;27.33;15.18;;;;;;;11.76;64.42;99931.22;5072553;27;100975;-71
2021/04/21 00:19:26;;;;;;;23.60;16.08;;;;;;;11.77;64.26;99932.06;5051508;27;98190;-71
2021/04/21 00:21:52;;;;;;;27.77;16.75;;;;;;;11.75;64.14;99924.28;5072608;27;96835;-72
2021/04/21 00:24:18;;;;;;;29.08;16.63;;;;;;;11.74;64.59;99924.34;5072211;27;97210;-76
2021/04/21 00:26:46;;;;;;;25.85;15.90;;;;;;;11.72;64.42;99921.78;5052927;27;101697;-71
2021/04/21 00:29:14;;;;;;;23.58;16.17;;;;;;;11.69;64.71;99921.94;5072508;27;97395;-72
2021/04/21 00:31:43;;;;;;;26.13;15.82;;;;;;;11.66;64.51;99929.91;5052821;27;98130;-71
2021/04/21 00:34:09;;;;;;;27.15;16.55;;;;;;;11.61;64.79;99926.66;5072659;27;97464;-71
2021/04/21 00:36:36;;;;;;;25.13;15.73;;;;;;;11.59;64.99;99925.88;5052702;27;101342;-71
2021/04/21 00:39:03;;;;;;;26.77;15.07;;;;;;;11.60;64.63;99924.94;5046864;27;97995;-71
2021/04/21 00:41:37;;;;;;;29.02;16.95;;;;;;;11.53;64.73;99923.53;5033045;27;96732;-71
2021/04/21 00:44:03;;;;;;;26.05;16.77;;;;;;;11.44;65.43;99924.78;5090752;27;96950;-71
2021/04/21 00:46:46;;;;;;;26.90;17.70;;;;;;;11.44;65.30;99922.16;5054449;27;101453;-71
2021/04/21 00:49:14;;;;;;;24.55;17.27;;;;;;;11.43;65.17;99924.84;5055121;27;101484;-71
2021/04/21 00:51:48;;;;;;;27.50;17.45;;;;;;;11.44;65.33;99926.56;5071759;27;96752;-72
2021/04/21 00:54:36;;;;;;;30.27;17.52;;;;;;;11.41;65.34;99926.69;5054200;27;97039;-71
2021/04/21 00:57:31;;;;;;;28.02;16.85;;;;;;;11.38;65.14;99927.69;5071572;27;101460;-72
2021/04/21 01:00:10;;;;;;;25.98;16.88;;;;;;;11.35;64.88;99927.81;5072299;27;97851;-71
2021/04/21 01:03:08;;;;;;;29.38;16.25;;;;;;;11.25;65.09;99924.72;5075715;27;96794;-71
2021/04/21 01:05:40;;;;;;;29.20;17.05;;;;;;;11.24;65.30;99924.78;5054530;27;96960;-71
2021/04/21 01:08:08;;;;;;;41.85;22.55;;;;;;;11.17;65.72;99918.97;5038612;27;101398;-72
2021/04/21 01:10:40;;;;;;;33.22;19.17;;;;;;;11.15;65.84;99917.31;5037246;27;101239;-72
2021/04/21 01:13:05;;;;;;;;;;;;;;;11.12;65.94;99920.06;5055413;27;97098;-74
2021/04/21 01:15:33;;;;;;;36.97;18.65;;;;;;;11.03;66.41;99918.69;5024166;27;97073;-72
2021/04/21 01:18:00;;;;;;;39.30;21.75;;;;;;;10.97;66.21;99916.31;5051398;27;97628;-72
2021/04/21 01:20:43;;;;;;;45.70;23.75;;;;;;;10.93;66.06;99923.44;5036712;27;97846;-72
2021/04/21 01:23:45;;;;;;;37.38;22.17;;;;;;;10.90;66.08;99918.31;5037313;27;97600;-72
2021/04/21 01:26:26;;;;;;;37.72;22.60;;;;;;;10.88;66.16;99920.19;5033958;27;97387;-72
2021/04/21 01:28:53;;;;;;;36.45;20.90;;;;;;;10.86;66.13;99917.59;5072059;27;98198;-72
2021/04/21 01:31:21;;;;;;;31.30;20.08;;;;;;;10.84;66.24;99910.72;5055640;27;101053;-76
2021/04/21 01:33:48;;;;;;;35.97;19.83;;;;;;;10.83;65.75;99924.75;5038237;27;96985;-72
2021/04/21 01:36:16;;;;;;;36.75;20.02;;;;;;;10.82;66.07;99925.66;5054860;27;96982;-72
2021/04/21 01:38:42;;;;;;;30.67;20.10;;;;;;;10.80;66.18;99923.13;5053925;27;102720;-72
2021/04/21 01:41:11;;;;;;;30.42;18.77;;;;;;;10.76;66.06;99924.16;5055046;27;100974;-72
2021/04/21 01:43:44;;;;;;;33.22;19.90;;;;;;;10.71;66.40;99920.88;5053193;27;97235;-72
2021/04/21 01:46:11;;;;;;;29.65;19.23;;;;;;;10.68;66.64;99917.53;5055370;27;97314;-72
2021/04/21 01:48:37;;;;;;;26.52;18.63;;;;;;;10.68;66.32;99915.75;5052877;27;98637;-72
2021/04/21 01:51:06;;;;;;;28.92;18.20;;;;;;;10.63;66.54;99917.69;5069401;27;97884;-72
2021/04/21 01:53:36;;;;;;;34.67;18.92;;;;;;;10.63;66.02;99922.94;5074130;27;97350;-72
2021/04/21 01:56:06;;;;;;;29.13;18.30;;;;;;;10.56;66.65;99919.72;5056759;27;97161;-72
2021/04/21 01:58:55;;;;;;;28.05;17.38;;;;;;;10.56;65.90;99918.84;5053394;27;101506;-72
2021/04/21 02:01:31;;;;;;;31.60;18.33;;;;;;;10.56;66.41;99916.22;5052436;27;100697;-75
2021/04/21 02:04:02;;;;;;;31.55;18.17;;;;;;;10.51;66.17;99915.56;5074759;27;97271;-72
2021/04/21 02:07:00;;;;;;;45.33;22.15;;;;;;;10.43;66.33;99916.72;5054364;27;96906;-72
2021/04/21 02:09:44;;;;;;;111.78;45.65;;;;;;;10.40;66.79;99914.22;5053539;27;102511;-72
2021/04/21 02:12:42;;;;;;;39.72;22.05;;;;;;;10.34;66.34;99903.97;5072620;27;101489;-72
2021/04/21 02:15:22;;;;;;;37.85;21.80;;;;;;;10.38;66.43;99909.94;5092799;27;96875;-72
2021/04/21 02:17:57;;;;;;;36.70;20.90;;;;;;;10.34;66.44;99909.22;5037410;27;97490;-72
2021/04/21 02:20:29;;;;;;;41.53;22.92;;;;;;;10.37;66.49;99908.25;5055504;27;98432;-72
2021/04/21 02:23:09;;;;;;;42.85;22.27;;;;;;;10.34;66.17;99909.22;5054202;27;101301;-72
2021/04/21 02:25:42;;;;;;;36.70;21.42;;;;;;;10.32;66.56;99905.78;5038437;27;96971;-72
2021/04/21 02:28:52;;;;;;;40.22;21.52;;;;;;;10.31;66.08;99909.34;5075118;27;96619;-73
2021/04/21 02:31:24;;;;;;;40.03;20.33;;;;;;;10.22;66.11;99909.69;5036007;27;101157;-77
2021/04/21 02:34:30;;;;;;;32.17;19.02;;;;;;;10.16;66.70;99909.91;5092466;27;97955;-72
2021/04/21 02:37:08;;;;;;;32.58;18.30;;;;;;;10.19;66.32;99909.78;5054046;27;97154;-71
2021/04/21 02:39:55;;;;;;;38.13;19.63;;;;;;;10.18;66.26;99911.56;5073959;27;97143;-73
2021/04/21 02:42:37;;;;;;;38.70;19.27;;;;;;;10.15;65.87;99913.44;5054858;27;101593;-76
2021/04/21 02:45:13;;;;;;;28.30;17.67;;;;;;;10.11;66.20;99906.59;5074288;27;97894;-72
2021/04/21 02:47:43;;;;;;;33.85;19.50;;;;;;;10.11;65.86;99911.84;5052782;27;96796;-72
2021/04/21 02:50:16;;;;;;;34.73;18.93;;;;;;;10.07;66.32;99905.88;5043568;27;97047;-72
2021/04/21 02:52:54;;;;;;;30.35;18.58;;;;;;;10.05;66.44;99918.19;5054318;27;98496;-72
2021/04/21 02:55:35;;;;;;;35.30;19.23;;;;;;;10.04;66.79;99908.63;5056321;27;101377;-76
2021/04/21 02:58:23;;;;;;;27.65;17.10;;;;;;;10.05;66.59;99907.69;5053566;27;97035;-71
2021/04/21 03:00:56;;;;;;;29.85;17.75;;;;;;;10.07;66.19;99913.75;5068977;27;96804;-71
2021/04/21 03:03:39;;;;;;;27.77;17.27;;;;;;;10.11;66.68;99912.69;5035484;27;100649;-76
2021/04/21 03:06:14;;;;;;;29.77;17.50;;;;;;;10.15;66.63;99906.44;5054485;27;101148;-71
2021/04/21 03:08:42;;;;;;;31.60;18.15;;;;;;;10.15;66.76;99908.19;5052144;27;97757;-72
2021/04/21 03:11:20;;;;;;;30.75;18.23;;;;;;;10.15;66.59;99903.81;5053053;27;96832;-72
2021/04/21 03:14:08;;;;;;;37.83;18.10;;;;;;;10.15;66.53;99901.19;5053284;27;101010;-71
2021/04/21 03:16:36;;;;;;;31.67;17.70;;;;;;;10.15;66.74;99898.56;5052520;27;101621;-72
2021/04/21 03:19:06;;;;;;;26.92;16.25;;;;;;;10.12;66.38;99903.94;5054243;27;96749;-72
2021/04/21 03:21:36;;;;;;;31.40;17.65;;;;;;;10.11;66.68;99906.59;5072992;27;96806;-72
2021/04/21 03:24:07;;;;;;;29.45;16.15;;;;;;;10.11;67.21;99896.97;5072671;27;97960;-72
2021/04/21 03:26:34;;;;;;;27.83;16.33;;;;;;;10.15;66.90;99903.81;5073164;27;100650;-72
2021/04/21 03:29:02;;;;;;;27.88;15.77;;;;;;;10.16;67.13;99897.66;5073865;27;96609;-74
2021/04/21 03:31:32;;;;;;;24.65;15.73;;;;;;;10.22;66.67;99895.72;5052614;27;96746;-72
2021/04/21 03:34:01;;;;;;;27.38;15.80;;;;;;;10.22;66.93;99900.97;5052397;27;98092;-71
2021/04/21 03:36:27;;;;;;;25.60;14.98;;;;;;;10.19;66.75;99899.31;5066132;27;97836;-72
2021/04/21 03:38:53;;;;;;;29.40;15.82;;;;;;;10.19;67.00;99894.91;5053082;27;96982;-71
2021/04/21 03:41:19;;;;;;;28.35;15.77;;;;;;;10.21;66.38;99900.09;5067104;27;97389;-72
2021/04/21 03:43:45;;;;;;;28.67;16.13;;;;;;;10.20;67.07;99901.00;5051661;27;98826;-72
2021/04/21 03:46:11;;;;;;;21.25;14.20;;;;;;;10.24;66.54;99893.84;5049664;27;100245;-72
2021/04/21 03:48:38;;;;;;;20.50;14.13;;;;;;;10.25;66.09;99885.94;5055455;27;97200;-72
2021/04/21 03:51:05;;;;;;;28.98;14.38;;;;;;;10.28;66.09;99888.47;5073884;27;97145;-72
2021/04/21 03:53:34;;;;;;;30.58;15.93;;;;;;;10.28;66.19;99892.88;5050785;27;101564;-72
2021/04/21 03:56:00;;;;;;;19.98;13.02;;;;;;;10.30;66.04;99891.06;5050839;27;100637;-73
2021/04/21 03:58:28;;;;;;;23.17;14.20;;;;;;;10.29;66.15;99892.78;5051777;27;96667;-72
2021/04/21 04:01:02;;;;;;;20.83;13.73;;;;;;;10.36;66.06;99888.19;5049896;27;97096;-72
2021/04/21 04:03:28;;;;;;;22.90;13.68;;;;;;;10.39;66.35;99891.53;5037859;27;101756;-72
2021/04/21 04:06:00;;;;;;;22.40;13.10;;;;;;;10.42;65.95;99888.78;5055840;27;101286;-72
2021/04/21 04:08:27;;;;;;;19.83;12.43;;;;;;;10.46;66.01;99886.88;5072879;27;97469;-72
2021/04/21 04:10:53;;;;;;;20.83;13.38;;;;;;;10.46;65.95;99886.88;5052388;27;96729;-71
2021/04/21 04:13:19;;;;;;;20.10;13.40;;;;;;;10.46;66.02;99892.13;5045275;27;101909;-71
2021/04/21 04:15:49;;;;;;;19.88;13.07;;;;;;;10.48;66.04;99887.69;5055280;27;101624;-72
2021/04/21 04:18:15;;;;;;;24.02;14.38;;;;;;;10.47;66.03;99890.34;5038803;27;97183;-72
2021/04/21 04:20:42;;;;;;;37.28;15.15;;;;;;;10.51;65.94;99889.34;5034278;27;97512;-72
2021/04/21 04:23:10;;;;;;;31.00;15.35;;;;;;;10.48;65.73;99892.09;5063117;27;98562;-72
2021/04/21 04:25:44;;;;;;;25.02;15.02;;;;;;;10.52;65.96;99896.28;5051259;27;101515;-72
2021/04/21 04:28:11;;;;;;;20.23;14.57;;;;;;;10.49;66.18;99897.25;5052375;27;97316;-72
2021/04/21 04:30:41;;;;;;;25.80;14.98;;;;;;;10.50;65.90;99890.22;5053996;27;97635;-72
2021/04/21 04:33:07;;;;;;;20.08;14.85;;;;;;;10.49;66.42;99897.25;5054909;27;101538;-72
2021/04/21 04:35:34;;;;;;;26.55;15.65;;;;;;;10.53;66.56;99898.84;5054706;27;101520;-72
2021/04/21 04:38:01;;;;;;;21.88;15.90;;;;;;;10.57;66.07;99899.59;5072776;27;97178;-74
2021/04/21 04:40:27;;;;;;;24.25;15.68;;;;;;;10.60;66.05;99902.06;5055020;27;96909;-72
2021/04/21 04:42:53;;;;;;;23.67;16.23;;;;;;;10.61;66.16;99903.78;5054765;27;99966;-72
2021/04/21 04:45:20;;;;;;;24.92;15.25;;;;;;;10.64;65.88;99907.13;5038496;27;101222;-72
2021/04/21 04:47:52;;;;;;;25.85;16.55;;;;;;;10.67;65.37;99906.16;5040176;27;96754;-72
2021/04/21 04:50:20;;;;;;;25.65;14.77;;;;;;;10.69;65.70;99914.81;5072823;27;97167;-71
2021/04/21 04:52:49;;;;;;;29.88;16.65;;;;;;;10.72;65.49;99913.84;5052263;27;97498;-72
2021/04/21 04:55:16;;;;;;;32.13;15.73;;;;;;;10.73;65.45;99915.53;5072267;27;97338;-72
2021/04/21 04:57:43;;;;;;;22.08;15.75;;;;;;;10.83;65.16;99916.88;5035885;27;96932;-72
2021/04/21 05:00:19;;;;;;;27.70;15.27;;;;;;;10.91;64.85;99922.69;5038380;27;96883;-72
2021/04/21 05:02:49;;;;;;;27.73;14.32;;;;;;;10.95;65.27;99916.38;5053293;27;97789;-72
2021/04/21 05:05:15;;;;;;;19.42;13.82;;;;;;;11.09;64.73;99921.06;5071439;27;98381;-72
2021/04/21 05:07:43;;;;;;;28.42;15.27;;;;;;;11.23;63.97;99918.69;5050572;27;97159;-72
2021/04/21 05:10:24;;;;;;;19.08;14.05;;;;;;;11.49;62.54;99917.56;5034642;27;96729;-72
2021/04/21 05:12:51;;;;;;;21.75;13.30;;;;;;;11.53;62.30;99913.84;5050265;27;101824;-72
2021/04/21 05:15:39;;;;;;;19.63;13.07;;;;;;;11.59;62.12;99906.63;5044914;27;101480;-72
2021/04/21 05:18:23;;;;;;;15.80;12.00;;;;;;;11.64;62.41;99907.28;5059098;27;97197;-72
2021/04/21 05:21:26;;;;;;;21.20;12.40;;;;;;;11.63;62.07;99910.81;5060899;27;96895;-72
2021/04/21 05:24:07;;;;;;;18.75;12.38;;;;;;;11.64;61.99;99912.53;5050143;27;99344;-72
2021/04/21 05:26:42;;;;;;;19.52;12.23;;;;;;;11.60;62.08;99916.22;5047192;27;101278;-69
2021/04/21 05:29:26;;;;;;;16.25;11.77;;;;;;;11.66;62.14;99916.78;5060874;27;97140;-72
2021/04/21 05:32:04;;;;;;;16.65;10.52;;;;;;;11.79;61.46;99914.47;5066580;27;96796;-72
2021/04/21 05:35:03;;;;;;;14.90;11.00;;;;;;;12.08;60.71;99918.41;5076652;27;97622;-74
2021/04/21 05:38:06;;;;;;;18.30;11.80;;;;;;;13.31;57.34;99915.06;5077247;27;97632;-72
2021/04/21 05:40:32;;;;;;;21.83;11.32;;;;;;;13.42;56.86;99915.34;5050996;27;96729;-72
2021/04/21 05:43:13;;;;;;;19.05;11.68;;;;;;;13.83;57.04;99920.22;5063735;27;96933;-71
2021/04/21 05:45:57;;;;;;;18.40;10.10;;;;;;;18.29;47.40;99909.84;5070211;27;100938;-72
2021/04/21 05:48:51;;;;;;;15.75;10.75;;;;;;;16.53;49.66;99907.72;5070822;27;98133;-69
2021/04/21 05:51:58;;;;;;;19.08;9.65;;;;;;;17.81;47.53;99920.38;5047746;27;97473;-70
2021/04/21 05:55:01;;;;;;;18.45;10.55;;;;;;;20.93;41.51;99918.66;4961673;28;97254;-73
2021/04/21 05:57:45;;;;;;;17.75;10.23;;;;;;;22.25;39.19;99908.19;4983079;28;98161;-74
2021/04/21 06:00:10;;;;;;;18.70;8.98;;;;;;;22.94;38.07;99907.25;5055002;27;101179;-71
2021/04/21 06:02:36;;;;;;;19.73;10.40;;;;;;;23.49;37.12;99907.47;5066772;27;97224;-72
2021/04/21 06:05:12;;;;;;;23.02;11.27;;;;;;;24.10;35.78;99908.81;5087528;27;96806;-70
2021/04/21 06:07:38;;;;;;;17.88;9.82;;;;;;;24.91;34.78;99907.16;5033469;27;100863;-71
2021/04/21 06:10:25;;;;;;;14.07;9.65;;;;;;;25.69;33.82;99910.78;5047936;27;101235;-71
2021/04/21 06:12:55;;;;;;;18.77;9.52;;;;;;;26.19;32.83;99907.34;5047203;27;97132;-69
2021/04/21 06:15:22;;;;;;;22.13;12.30;;;;;;;26.49;32.15;99904.22;5053876;27;97233;-69
2021/04/21 06:17:55;;;;;;;19.85;13.38;;;;;;;26.51;32.38;99895.00;5055943;27;102048;-69
2021/04/21 06:20:30;;;;;;;16.45;13.10;;;;;;;26.52;31.51;99893.16;5074534;27;99019;-69
2021/04/21 06:23:09;;;;;;;14.45;8.95;;;;;;;22.85;36.59;99904.59;5073983;27;96693;-74
2021/04/21 06:25:36;;;;;;;12.13;8.38;;;;;;;21.19;39.48;99901.31;5075266;27;96945;-70
2021/04/21 06:28:31;;;;;;;12.57;8.88;;;;;;;20.51;40.77;99900.72;5055885;27;100524;-70
2021/04/21 06:31:12;;;;;;;14.75;9.00;;;;;;;22.01;38.50;99897.78;5052277;27;97490;-74
2021/04/21 06:33:40;;;;;;;21.70;8.98;;;;;;;21.63;39.44;99895.81;5045206;27;97363;-71
2021/04/21 06:36:07;;;;;;;13.70;9.02;;;;;;;20.54;40.97;99903.19;5037692;27;97428;-70
2021/04/21 06:38:34;;;;;;;13.45;8.57;;;;;;;19.76;41.40;99903.28;5029137;27;100781;-70
2021/04/21 06:41:00;;;;;;;11.18;8.23;;;;;;;19.04;43.60;99908.78;5033183;27;101578;-71
2021/04/21 06:43:28;;;;;;;10.95;8.07;;;;;;;18.55;44.63;99914.09;5066380;27;97051;-70
2021/04/21 06:45:54;;;;;;;10.80;8.70;;;;;;;18.44;45.26;99921.19;5044978;27;97412;-75
2021/04/21 06:48:34;;;;;;;21.20;10.07;;;;;;;18.77;44.89;99913.41;5046961;27;101502;-69
2021/04/21 06:51:07;;;;;;;16.17;8.85;;;;;;;18.78;44.15;99916.91;5052488;27;101432;-70
2021/04/21 06:53:33;;;;;;;12.23;8.27;;;;;;;18.59;44.80;99920.06;5056632;27;96846;-69
2021/04/21 06:55:58;;;;;;;14.73;8.85;;;;;;;18.58;45.13;99918.34;5053913;27;97053;-70
2021/04/21 06:58:27;;;;;;;16.15;8.27;;;;;;;18.66;44.57;99915.16;5055059;27;98288;-71
2021/04/21 07:00:53;;;;;;;12.15;9.05;;;;;;;22.32;38.99;99912.00;5059849;27;98670;-71
2021/04/21 07:03:19;;;;;;;13.60;8.57;;;;;;;25.16;34.80;99910.91;5048988;27;97152;-70
2021/04/21 07:05:46;;;;;;;15.23;8.25;;;;;;;26.81;32.60;99901.59;5074034;27;97250;-71
2021/04/21 07:08:13;;;;;;;15.35;9.50;;;;;;;27.55;31.03;99893.50;5048243;27;101505;-71
2021/04/21 07:10:50;;;;;;;20.60;8.95;;;;;;;26.74;31.81;99899.75;5052183;27;97745;-71
2021/04/21 07:13:25;;;;;;;12.05;8.52;;;;;;;28.61;29.79;99897.63;5035336;27;96866;-71
2021/04/21 07:15:53;;;;;;;9.77;8.25;;;;;;;29.58;28.58;99897.78;5069594;27;97057;-71
2021/04/21 07:18:21;;;;;;;15.80;14.40;;;;;;;30.23;28.34;99902.47;5032273;27;101614;-71
2021/04/21 07:20:48;;;;;;;12.10;8.15;;;;;;;30.49;27.85;99889.44;5035961;27;100877;-72
2021/04/21 07:23:19;;;;;;;10.60;6.72;;;;;;;31.15;27.32;99889.22;5068306;27;98651;-73
2021/04/21 07:25:47;;;;;;;11.82;8.77;;;;;;;31.58;26.14;99890.00;5032967;27;97070;-71
2021/04/21 07:28:14;;;;;;;11.43;7.15;;;;;;;32.29;25.54;99881.59;5030665;27;101636;-72
2021/04/21 07:30:40;;;;;;;10.77;7.88;;;;;;;32.94;25.46;99883.81;5050999;27;101603;-71
2021/04/21 07:33:05;;;;;;;11.00;7.13;;;;;;;33.51;24.41;99890.47;5053120;27;97096;-72
2021/04/21 07:35:32;;;;;;;8.82;7.03;;;;;;;33.92;24.06;99886.63;5052620;27;97151;-73
2021/04/21 07:37:58;;;;;;;11.55;6.95;;;;;;;34.43;23.79;99892.06;5059511;27;97993;-76
2021/04/21 07:40:25;;;;;;;14.13;7.40;;;;;;;34.78;23.34;99888.13;5029745;27;101164;-72
2021/04/21 07:42:51;;;;;;;22.90;7.72;;;;;;;35.15;22.90;99880.94;5067699;27;97136;-72
2021/04/21 07:45:20;;;;;;;70.63;14.73;;;;;;;35.60;22.67;99881.53;5047546;27;97268;-72
2021/04/21 07:47:47;;;;;;;25.17;8.93;;;;;;;35.85;22.46;99885.28;5048201;27;101486;-72
2021/04/21 07:50:12;;;;;;;11.60;7.35;;;;;;;36.15;22.03;99880.72;5038490;27;101151;-72
2021/04/21 07:52:38;;;;;;;17.58;8.57;;;;;;;36.23;21.92;99887.75;5028880;27;97034;-72
2021/04/21 07:55:17;;;;;;;11.88;7.68;;;;;;;36.29;22.02;99886.84;5045065;27;99863;-75
2021/04/21 07:57:45;;;;;;;8.50;6.20;;;;;;;36.69;21.73;99876.19;5024853;27;101028;-72
2021/04/21 08:00:23;;;;;;;7.13;6.15;;;;;;;36.75;22.36;99877.16;5037260;27;97935;-75
2021/04/21 08:02:48;;;;;;;11.02;6.28;;;;;;;37.59;21.60;99879.75;5019917;27;97097;-75
2021/04/21 08:05:15;;;;;;;7.25;5.40;;;;;;;37.49;21.26;99874.03;5060427;27;97320;-75
2021/04/21 08:07:42;;;;;;;8.98;5.43;;;;;;;38.07;21.44;99884.03;5039314;27;100837;-74
2021/04/21 08:10:25;;;;;;;8.65;6.40;;;;;;;38.38;21.08;99887.41;5042159;27;98028;-76
2021/04/21 08:12:52;;;;;;;7.68;5.95;;;;;;;39.00;20.44;99881.13;5038566;27;98030;-75
2021/04/21 08:15:18;;;;;;;9.55;6.47;;;;;;;39.49;20.57;99881.34;5023110;27;97331;-75
2021/04/21 08:18:03;;;;;;;9.43;6.32;;;;;;;39.33;19.95;99874.78;5040566;27;98001;-77
2021/04/21 08:20:42;;;;;;;9.85;6.63;;;;;;;39.79;19.07;99873.53;5066266;27;97391;-75
2021/04/21 08:23:09;;;;;;;8.77;6.03;;;;;;;39.31;19.28;99869.56;5025178;27;97350;-76
2021/04/21 08:25:34;;;;;;;7.15;5.85;;;;;;;39.91;19.71;99870.66;5039878;27;96825;-76
2021/04/21 08:28:00;;;;;;;13.63;6.32;;;;;;;39.86;18.82;99878.03;5023884;27;102113;-81
2021/04/21 08:30:28;;;;;;;8.30;6.32;;;;;;;39.88;19.45;99876.66;5043103;27;101231;-76
2021/04/21 08:32:54;;;;;;;8.68;5.45;;;;;;;40.04;20.08;99880.44;5040593;27;96908;-76
2021/04/21 08:35:20;;;;;;;13.93;5.68;;;;;;;40.96;19.38;99881.38;5029281;27;96951;-75
2021/04/21 08:37:45;;;;;;;8.40;6.20;;;;;;;40.98;18.80;99881.94;5047226;27;101324;-74
2021/04/21 08:40:14;;;;;;;8.45;6.22;;;;;;;40.77;17.73;99877.38;5022397;27;101239;-74
2021/04/21 08:42:44;;;;;;;8.52;6.57;;;;;;;40.69;18.15;99875.91;5025737;27;97348;-75
2021/04/21 08:45:10;;;;;;;;;;;;;;;40.71;18.29;99882.00;5042691;27;97236;-73
2021/04/21 08:47:38;;;;;;;8.27;6.28;;;;;;;40.75;18.12;99876.78;5038363;27;101136;-73
2021/04/21 08:50:05;;;;;;;6.97;5.60;;;;;;;40.85;18.04;99883.22;5038974;27;100845;-72
2021/04/21 08:52:37;;;;;;;10.98;6.15;;;;;;;40.51;18.23;99872.44;5043911;27;97050;-75
2021/04/21 08:55:03;;;;;;;7.80;6.40;;;;;;;41.06;18.38;99875.16;5053303;27;97474;-76
2021/04/21 08:57:29;;;;;;;17.17;6.38;;;;;;;40.56;18.34;99874.41;5033185;27;97467;-73
2021/04/21 08:59:55;;;;;;;9.98;5.95;;;;;;;40.33;18.41;99871.97;5065056;27;98631;-74
2021/04/21 09:02:20;;;;;;;6.97;6.25;;;;;;;40.21;17.64;99869.38;5057416;27;97300;-73
2021/04/21 09:04:46;;;;;;;9.07;5.95;;;;;;;40.39;18.22;99877.25;5055422;27;96818;-73
2021/04/21 09:07:12;;;;;;;10.20;6.72;;;;;;;39.75;18.48;99877.88;5058880;27;97702;-73
2021/04/21 09:09:38;;;;;;;7.28;5.95;;;;;;;39.47;18.51;99873.34;5060997;27;97932;-74
2021/04/21 09:12:05;;;;;;;6.68;5.97;;;;;;;39.08;18.98;99876.03;5061937;27;97198;-74
2021/04/21 09:14:31;;;;;;;10.52;6.15;;;;;;;38.46;18.99;99884.28;5049612;27;97251;-73
2021/04/21 09:16:57;;;;;;;10.00;6.43;;;;;;;37.26;19.85;99881.13;5045064;27;101741;-73
2021/04/21 09:19:23;;;;;;;7.72;6.63;;;;;;;35.54;21.29;99876.97;5038183;27;101735;-72
2021/04/21 09:22:03;;;;;;;14.18;6.57;;;;;;;34.57;22.79;99879.25;5049254;27;96825;-75
2021/04/21 09:24:29;;;;;;;12.88;5.50;;;;;;;33.36;23.55;99885.28;5048821;27;96945;-81
2021/04/21 09:26:54;;;;;;;7.60;5.85;;;;;;;32.26;23.53;99876.56;5028415;27;102018;-74
2021/04/21 09:29:27;;;;;;;20.25;7.88;;;;;;;31.23;25.10;99878.25;5036085;27;100881;-74
2021/04/21 09:32:19;;;;;;;13.43;6.00;;;;;;;30.11;25.79;99879.63;5025512;27;97402;-75
2021/04/21 09:34:54;;;;;;;12.57;6.38;;;;;;;29.52;25.72;99872.31;5040773;27;98011;-74
2021/04/21 09:37:25;;;;;;;9.13;6.60;;;;;;;29.29;27.04;99871.56;5065330;27;99764;-74
2021/04/21 09:39:50;;;;;;;12.85;6.28;;;;;;;29.23;27.68;99873.13;5043934;27;101302;-73
2021/04/21 09:42:24;;;;;;;10.73;6.78;;;;;;;28.56;27.94;99871.16;5048070;27;97154;-74
2021/04/21 09:44:52;;;;;;;12.15;6.20;;;;;;;28.41;27.84;99875.59;5049644;27;96790;-73
2021/04/21 09:47:19;;;;;;;7.47;6.15;;;;;;;27.66;27.56;99876.94;5050133;27;101100;-73
2021/04/21 09:49:44;;;;;;;9.20;6.60;;;;;;;27.14;28.14;99873.81;5033236;27;101667;-73
2021/04/21 09:52:13;;;;;;;8.23;6.18;;;;;;;27.05;29.23;99863.06;5052386;27;97156;-73
2021/04/21 09:54:41;;;;;;;10.77;6.45;;;;;;;26.50;29.07;99862.88;5073058;27;97577;-73
2021/04/21 09:57:09;;;;;;;6.85;5.70;;;;;;;26.49;28.89;99867.38;5037902;27;101769;-74
2021/04/21 09:59:35;;;;;;;12.80;7.10;;;;;;;26.14;29.81;99865.78;5055618;27;101526;-73
2021/04/21 10:02:01;;;;;;;10.55;6.53;;;;;;;25.63;29.89;99870.28;5071832;27;97217;-75
2021/04/21 10:04:27;;;;;;;10.75;6.70;;;;;;;25.13;30.68;99865.53;5053185;27;97317;-73
2021/04/21 10:06:55;;;;;;;11.27;6.00;;;;;;;25.27;30.92;99857.78;5045724;27;98042;-72
2021/04/21 10:09:25;;;;;;;11.77;6.28;;;;;;;24.65;29.99;99867.69;5054254;27;101201;-72
2021/04/21 10:11:51;;;;;;;13.43;6.15;;;;;;;24.79;30.31;99861.78;5048927;27;97244;-72
2021/04/21 10:14:24;;;;;;;11.23;5.95;;;;;;;24.62;31.51;99857.25;5052520;27;97221;-72
2021/04/21 10:16:51;;;;;;;7.03;5.15;;;;;;;24.59;31.07;99860.25;5046470;27;101712;-72
2021/04/21 10:19:18;;;;;;;11.63;5.10;;;;;;;24.47;31.16;99854.28;5036727;27;98459;-72
2021/04/21 10:21:44;;;;;;;8.40;5.10;;;;;;;24.15;30.84;99865.47;5050625;27;96753;-72
2021/04/21 10:24:10;;;;;;;9.57;5.32;;;;;;;24.16;31.27;99859.94;5052745;27;97102;-71
2021/04/21 10:26:35;;;;;;;7.57;5.22;;;;;;;23.95;31.63;99862.06;5046403;27;99471;-71
2021/04/21 10:29:01;;;;;;;9.13;5.32;;;;;;;23.79;32.37;99857.34;5053384;27;101567;-74
2021/04/21 10:31:27;;;;;;;8.52;5.88;;;;;;;23.62;32.47;99855.41;5050030;27;96897;-72
2021/04/21 10:33:53;;;;;;;9.70;5.45;;;;;;;23.57;32.24;99853.19;5049078;27;96942;-72
2021/04/21 10:36:19;;;;;;;9.35;5.07;;;;;;;23.45;32.84;99851.69;5055765;27;101532;-73
2021/04/21 10:38:44;;;;;;;11.43;6.10;;;;;;;23.43;33.38;99845.63;5039811;27;101276;-73
2021/04/21 10:41:25;;;;;;;6.93;5.00;;;;;;;23.27;32.10;99846.22;5039175;27;97878;-73
2021/04/21 10:44:06;;;;;;;11.68;5.90;;;;;;;23.16;33.36;99849.09;5039992;27;97052;-74
2021/04/21 10:47:03;;;;;;;9.68;5.97;;;;;;;23.00;33.81;99842.47;5039976;27;101860;-74
2021/04/21 10:49:50;;;;;;;8.50;5.57;;;;;;;22.87;32.56;99841.06;5068651;27;101236;-74
2021/04/21 10:52:17;;;;;;;8.73;5.38;;;;;;;22.53;33.47;99841.50;5061573;27;97480;-74
2021/04/21 10:54:44;;;;;;;8.48;5.80;;;;;;;22.64;32.95;99843.19;5052541;27;97268;-74
2021/04/21 10:57:32;;;;;;;15.05;5.55;;;;;;;22.72;33.50;99849.53;5047135;27;101018;-74
2021/04/21 11:00:12;;;;;;;7.38;5.25;;;;;;;22.60;32.76;99848.84;5074817;27;98101;-73
2021/04/21 11:02:44;;;;;;;11.33;6.57;;;;;;;22.59;33.13;99843.63;5039626;27;97034;-73
2021/04/21 11:05:18;;;;;;;9.13;5.25;;;;;;;22.58;34.09;99841.94;5055461;27;96989;-73
2021/04/21 11:08:00;;;;;;;9.70;5.07;;;;;;;22.76;34.34;99834.88;5037442;27;99627;-71
2021/04/21 11:10:33;;;;;;;8.45;5.47;;;;;;;22.48;33.92;99835.72;5071116;27;101340;-74
2021/04/21 11:12:59;;;;;;;10.90;5.35;;;;;;;22.35;34.69;99838.69;5072664;27;97176;-72
2021/04/21 11:15:43;;;;;;;8.07;5.60;;;;;;;22.18;34.90;99842.03;5053787;27;96782;-72
2021/04/21 11:18:08;;;;;;;9.15;5.50;;;;;;;22.07;34.83;99838.44;5052664;27;98567;-72
2021/04/21 11:20:46;;;;;;;13.55;5.93;;;;;;;21.95;34.16;99828.88;5036027;27;100993;-72
2021/04/21 11:23:57;;;;;;;12.48;6.10;;;;;;;21.98;34.76;99831.25;5052892;27;97127;-72
2021/04/21 11:26:23;;;;;;;13.70;6.18;;;;;;;22.02;35.37;99823.81;5075116;27;97231;-71
2021/04/21 11:29:08;;;;;;;8.93;5.82;;;;;;;21.93;35.33;99820.13;5072642;27;101146;-74
2021/04/21 11:31:39;;;;;;;8.85;5.47;;;;;;;21.89;35.73;99816.06;5071958;27;100562;-73
2021/04/21 11:34:27;;;;;;;12.90;5.95;;;;;;;22.00;35.45;99831.97;5070717;27;98038;-74
2021/04/21 11:37:01;;;;;;;10.35;5.65;;;;;;;22.09;34.29;99820.47;5092036;27;96592;-72
2021/04/21 11:42:45;;;;;;;9.80;4.88;;;;;;;22.06;35.28;99827.91;5061926;27;98000;-73
2021/04/21 11:45:25;;;;;;;8.07;4.78;;;;;;;22.08;34.49;99812.59;5052352;27;97221;-70
2021/04/21 11:48:00;;;;;;;7.93;4.95;;;;;;;22.06;34.00;99826.09;5047039;27;96900;-73
2021/04/21 11:50:28;;;;;;;8.23;4.50;;;;;;;21.72;33.08;99806.03;5064881;27;100957;-72